METAR AND TAF INFORMATION
METAR FOR SKCC
ADDS - METARS form results

(1039 UTC 05 July 2020)
Data provider http://aviationweather.gov/metar/data/
 
Forecast for: SKCC (CUCUTA/CAMILO DA, CO)
Text: TAF SKCC 051030Z 0512/0612 16015KT 9999 SCT022 SCT090 TX35/0519Z TN25/0611Z
Forecast period: 1200 UTC 05 July 2020 to 1200 UTC 06 July 2020
Forecast type: FROM: standard forecast or significant change
Winds: from the SSE (160 degrees) at 17 MPH (15 knots; 7.7 m/s)
Visibility: 6 or more miles 10+ km)
Ceiling: at least 12,000 feet AGL
Clouds: scattered clouds at 2200 feet AGL
scattered clouds at 9000 feet AGL
Weather: no significant weather forecast for this period

 AIRPORT MAP

 RUNWAY INFORMATION
Runway 02 Runway length 6341 ft Runway width 148 ft
Runway elevation 1046 ft Runway displaced threshold 0 ft Runway heading 17
Runway 20 Runway length 6341 ft Runway width 148 ft
Runway elevation 1004 ft Runway displaced threshold 0 ft Runway heading 197
Runway 16 Runway length 7700 ft Runway width 148 ft
Runway elevation 1098 ft Runway displaced threshold 0 ft Runway heading 148
Runway 34 Runway length 7700 ft Runway width 148 ft
Runway elevation 1026 ft Runway displaced threshold 0 ft Runway heading 328

 AIRPORT FREQUENCIES
Type APP Name CUCUTA APP Frequency 119.9 MHZ
Type RDO Name CUCUTA RDO Frequency 348.8 MHZ
Type TWR Name TWR Frequency 118.1 MHZ

 AIRPORT NEAR NAVIGATION AIDS
Type NDB Name Cucuta Frequency 395 KHZ
Type VOR-DME Name Cucuta Frequency 113300 KHZ